Hauptseite
METAR-TAF:

METAR-TAF

Flughäfen :

Flughafen Antwerpen

Antwerpen, Belgien

Breite: 51-12N, Länge: 004-28E, Höhe: 12 m

Beobachtung

Neuester Wetterbericht von vor 31 Minuten, um 07:20 UTC
Wind 9 kt aus Südwest
Temperatur 13°C
Luftfeuchtigkeit 72%
Luftdruck 1020 hPa
Sichtweite 10 km oder mehr
keine Wolken unter 1500 m und keine Kumulonimbus oder Gewitterwolken

METAR: EBAW 220720Z 22009KT CAVOK 13/08 Q1020 NOSIG

Zeit: 09:51 (07:51 UTC)

Prognose

Neuester Wetterbericht von vor 2 Stunden und 51 Minuten, um 05:00 UTC
Gültige Prognose vom 22 um 06 UTC bis 22 um 15 UTC
Wind 10 kt aus Südwest
Sichtweite 10 km oder mehr
Leicht bewölkt in der Höhe von 3000 ft

TAF: EBAW 220500Z 2206/2215 23010KT 9999 FEW030

Wetterbeobachtungen und Prognosen von mehr als 4000 Flughäfen (METAR und TAF Bericht).

Die verfügbaren Stationen werden durch gelbe und rote Markierungen auf der Karte dargestellt.

Führen Sie die Maus auf sie, um den Namen der Station zu sehen.

Darauf klicken, um die Beobachtung von Wetterbeobachtungen und Prognosen zu sehen.

Um die Karte zu ändern : klicken Sie auf den grünen Tasten mit einem schwarzen Kreuz Zum Vergrößern, auf den grünen Button mit einem Gedankenstrich zu verkleinern, oder auf die grünen Pfeile für benachbarte Karten.


METAR-TAF: